Airfield :
LOGIN :

Register | Disclaimer

   EN    FR    IT 

 










Legend :    VFR   Marginal VFR   IFR   Intensive IFR   Very Intensive IFR
Visi :
Ceiling :
>= 8 km
>= 3000ft
5 to 8 km
1000 to 3000 ft
1500m to 5 km
500 to 1000 ft
800 to 1500m
200 to 500 ft
< 800m
< 200 ft
Symbols :   Thunderstorms  Fog  Heavy snow  Heavy precipitations  Wind > 20 kt
SIGMETs :     Misc.  Thunderstorms  Icing  Turbulence  Mountain Waves  Volcanic Ashes






- Airport Elevation : 3381 ft
- IATA code : KYA


LTAN - Konya AB

CURRENT METAR :
  • 061550Z 04007KT 350V070 CAVOK 32/01 Q1006 NOSIG

EXPIRED METARs :
  • 061450Z 06006KT 350V100 CAVOK 32/03 Q1006 NOSIG
  • 061350Z 09006KT 030V160 9999 FEW040 32/M00 Q1006 NOSIG

TAF TAF LTAN
Valid from the 06 at 15:00 until the 07 at 00:00 UTC


061340Z 0615/0624 02007KT 9999 FEW040
BECMG 0615/0617 CAVOK



MET'MAP, your aeronautical weather chart ! - Copyright ORBIFLY December 2007 - Disclaimer

ORBIFLY MET'MAP TEAM :

Programming & Development : Alexandra Zaïnal
Concept & original design : Baudouin d'Aumeries
Assistance for programming : Marc-Olivier Méhu
Technical & hardware support : Manuel Goepfert

Contact : metmap@orbifly.com




SOURCES & CREDITS :

   NOAA